createdAt,value
2018-12-03T00:00:09.054Z,0.00
2018-12-03T00:01:09.052Z,0.00
2018-12-03T00:02:09.048Z,0.00
2018-12-03T00:03:09.085Z,0.00
2018-12-03T00:04:09.050Z,0.00
2018-12-03T00:05:09.043Z,0.00
2018-12-03T00:06:09.054Z,0.00
2018-12-03T00:07:09.045Z,0.00
2018-12-03T00:08:09.065Z,0.00
2018-12-03T00:09:09.044Z,0.00
2018-12-03T00:10:09.072Z,0.00
2018-12-03T00:11:09.035Z,0.00
2018-12-03T00:12:09.033Z,0.00
2018-12-03T00:13:09.060Z,0.00
2018-12-03T00:14:09.028Z,0.00
2018-12-03T00:15:09.028Z,0.00
2018-12-03T00:16:09.028Z,0.00
2018-12-03T00:17:09.021Z,0.00
2018-12-03T00:18:09.049Z,0.00
2018-12-03T00:19:09.018Z,0.00
2018-12-03T00:20:09.020Z,0.00
2018-12-03T00:21:09.020Z,0.00
2018-12-03T00:22:09.016Z,0.00
2018-12-03T00:23:09.046Z,0.00
2018-12-03T00:24:09.012Z,0.00
2018-12-03T00:25:09.042Z,0.00
2018-12-03T00:26:09.008Z,0.00
2018-12-03T00:27:09.016Z,0.00
2018-12-03T00:28:09.005Z,0.00
2018-12-03T00:29:09.037Z,0.00
2018-12-03T00:30:09.002Z,0.00
2018-12-03T00:31:09.004Z,0.00
2018-12-03T00:32:09.001Z,0.00
2018-12-03T00:33:08.993Z,0.00
2018-12-03T00:34:09.025Z,0.00
2018-12-03T00:35:08.993Z,0.00
2018-12-03T00:36:08.989Z,0.00
2018-12-03T00:37:08.993Z,0.00
2018-12-03T00:38:08.986Z,0.00
2018-12-03T00:39:09.056Z,0.00
2018-12-03T00:40:08.985Z,0.00
2018-12-03T00:41:08.985Z,0.00
2018-12-03T00:42:08.981Z,0.00
2018-12-03T00:43:08.981Z,0.00
2018-12-03T00:44:09.011Z,0.00
2018-12-03T00:45:08.978Z,0.00
2018-12-03T00:46:08.975Z,0.00
2018-12-03T00:47:08.974Z,0.00
2018-12-03T00:48:08.973Z,0.00
2018-12-03T00:49:09.006Z,0.00
2018-12-03T00:50:08.969Z,0.00
2018-12-03T00:51:08.966Z,0.00
2018-12-03T00:52:08.969Z,0.00
2018-12-03T00:53:08.966Z,0.00
2018-12-03T00:54:08.993Z,0.00
2018-12-03T00:55:08.959Z,0.00
2018-12-03T00:56:08.960Z,0.00
2018-12-03T00:57:08.957Z,0.00
2018-12-03T00:58:08.954Z,0.00
2018-12-03T00:59:08.984Z,0.00
2018-12-03T01:00:08.954Z,0.00
2018-12-03T01:01:08.996Z,0.00
2018-12-03T01:02:08.951Z,0.00
2018-12-03T01:03:08.950Z,0.00
2018-12-03T01:04:08.974Z,0.00
2018-12-03T01:05:08.936Z,0.00
2018-12-03T01:06:08.942Z,0.00
2018-12-03T01:07:08.942Z,0.00
2018-12-03T01:08:08.940Z,0.00
2018-12-03T01:09:08.967Z,0.00
2018-12-03T01:10:08.934Z,0.00
2018-12-03T01:11:08.939Z,0.00
2018-12-03T01:12:08.936Z,0.00
2018-12-03T01:13:08.932Z,0.00
2018-12-03T01:14:08.959Z,0.00
2018-12-03T01:15:08.958Z,0.00
2018-12-03T01:16:08.927Z,0.00
2018-12-03T01:17:08.927Z,0.00
2018-12-03T01:18:08.924Z,0.00
2018-12-03T01:19:08.923Z,0.00
2018-12-03T01:20:08.947Z,0.00
2018-12-03T01:21:08.919Z,0.00
2018-12-03T01:22:08.915Z,0.00
2018-12-03T01:23:08.915Z,0.00
2018-12-03T01:24:08.911Z,0.00
2018-12-03T01:25:08.944Z,0.00
2018-12-03T01:26:08.903Z,0.00
2018-12-03T01:27:08.906Z,0.00
2018-12-03T01:28:08.911Z,0.00
2018-12-03T01:29:08.904Z,0.00
2018-12-03T01:30:08.927Z,0.00
2018-12-03T01:31:08.900Z,0.00
2018-12-03T01:32:08.903Z,0.00
2018-12-03T01:33:08.900Z,0.00
2018-12-03T01:34:08.904Z,0.00
2018-12-03T01:35:08.924Z,0.00
2018-12-03T01:36:08.889Z,0.00
2018-12-03T01:37:08.893Z,0.00
2018-12-03T01:38:08.888Z,0.00
2018-12-03T01:39:08.889Z,0.00
2018-12-03T01:40:08.916Z,0.00
2018-12-03T01:41:08.884Z,0.00
2018-12-03T01:42:08.880Z,0.00
2018-12-03T01:43:08.881Z,0.00
2018-12-03T01:44:08.879Z,0.00
2018-12-03T01:45:08.903Z,0.00
2018-12-03T01:46:08.863Z,0.00
2018-12-03T01:47:08.872Z,0.00
2018-12-03T01:48:08.873Z,0.00
2018-12-03T01:49:08.868Z,0.00
2018-12-03T01:50:08.898Z,0.00
2018-12-03T01:51:08.864Z,0.00
2018-12-03T01:52:08.864Z,0.00
2018-12-03T01:53:08.870Z,0.00
2018-12-03T01:54:08.890Z,0.00
2018-12-03T01:55:08.889Z,0.00
2018-12-03T01:56:08.860Z,0.00
2018-12-03T01:57:08.856Z,0.00
2018-12-03T01:58:08.856Z,0.00
2018-12-03T01:59:08.854Z,0.00
2018-12-03T02:00:08.881Z,0.00
2018-12-03T02:01:08.848Z,0.00
2018-12-03T02:02:08.847Z,0.00
2018-12-03T02:03:08.844Z,0.00
2018-12-03T02:04:08.844Z,0.00
2018-12-03T02:05:08.868Z,0.00
2018-12-03T02:06:08.843Z,0.00
2018-12-03T02:07:08.838Z,0.00
2018-12-03T02:08:08.838Z,0.00
2018-12-03T02:09:08.837Z,0.00
2018-12-03T02:10:08.860Z,0.00
2018-12-03T02:11:08.836Z,0.00
2018-12-03T02:12:08.829Z,0.00
2018-12-03T02:13:08.828Z,0.00
2018-12-03T02:14:08.825Z,0.00
2018-12-03T02:15:08.854Z,0.00
2018-12-03T02:16:08.825Z,0.00
2018-12-03T02:17:08.825Z,0.00
2018-12-03T02:18:08.824Z,0.00
2018-12-03T02:19:08.821Z,0.00
2018-12-03T02:20:08.846Z,0.00
2018-12-03T02:21:08.817Z,0.00
2018-12-03T02:22:08.813Z,0.00
2018-12-03T02:23:08.813Z,0.00
2018-12-03T02:24:08.813Z,0.00
2018-12-03T02:25:08.839Z,0.00
2018-12-03T02:26:08.809Z,0.00
2018-12-03T02:27:08.805Z,0.00
2018-12-03T02:28:08.805Z,0.00
2018-12-03T02:29:08.804Z,0.00
2018-12-03T02:30:08.840Z,0.00
2018-12-03T02:31:08.804Z,0.00
2018-12-03T02:32:08.802Z,0.00
2018-12-03T02:33:08.794Z,0.00
2018-12-03T02:34:08.797Z,0.00
2018-12-03T02:35:08.821Z,0.00
2018-12-03T02:36:08.793Z,0.00
2018-12-03T02:37:08.792Z,0.00
2018-12-03T02:38:08.790Z,0.00
2018-12-03T02:39:08.789Z,0.00
2018-12-03T02:40:08.813Z,0.00
2018-12-03T02:41:08.788Z,0.00
2018-12-03T02:42:08.783Z,0.00
2018-12-03T02:43:08.781Z,0.00
2018-12-03T02:44:08.778Z,0.00
2018-12-03T02:45:08.806Z,0.00
2018-12-03T02:46:08.782Z,0.00
2018-12-03T02:47:08.773Z,0.00
2018-12-03T02:48:08.774Z,0.00
2018-12-03T02:49:08.805Z,0.00
2018-12-03T02:50:08.772Z,0.00
2018-12-03T02:51:08.769Z,0.00
2018-12-03T02:52:08.770Z,0.00
2018-12-03T02:53:08.767Z,0.00
2018-12-03T02:54:08.790Z,0.00
2018-12-03T02:55:08.761Z,0.00
2018-12-03T02:56:08.761Z,0.00
2018-12-03T02:57:08.762Z,0.00
2018-12-03T02:58:08.757Z,0.00
2018-12-03T02:59:08.783Z,0.00
2018-12-03T03:00:08.754Z,0.00
2018-12-03T03:01:08.750Z,0.00
2018-12-03T03:02:08.750Z,0.00
2018-12-03T03:03:08.753Z,0.00
2018-12-03T03:04:08.782Z,0.00
2018-12-03T03:05:08.743Z,0.00
2018-12-03T03:06:08.742Z,0.00
2018-12-03T03:07:08.743Z,0.00
2018-12-03T03:08:08.739Z,0.00
2018-12-03T03:09:08.766Z,0.00
2018-12-03T03:10:08.738Z,0.00
2018-12-03T03:11:08.736Z,0.00
2018-12-03T03:12:08.735Z,0.00
2018-12-03T03:13:08.733Z,0.00
2018-12-03T03:14:08.755Z,0.00
2018-12-03T03:15:08.729Z,0.00
2018-12-03T03:16:08.729Z,0.00
2018-12-03T03:17:08.726Z,0.00
2018-12-03T03:18:08.722Z,0.00
2018-12-03T03:19:08.746Z,0.00
2018-12-03T03:20:08.719Z,0.00
2018-12-03T03:21:08.720Z,0.00
2018-12-03T03:22:08.714Z,0.00
2018-12-03T03:23:08.710Z,0.00
2018-12-03T03:24:08.740Z,0.00
2018-12-03T03:25:08.714Z,0.00
2018-12-03T03:26:08.700Z,0.00
2018-12-03T03:27:08.702Z,0.00
2018-12-03T03:28:08.703Z,0.00
2018-12-03T03:29:08.728Z,0.00
2018-12-03T03:30:08.699Z,0.00
2018-12-03T03:31:08.695Z,0.00
2018-12-03T03:32:08.688Z,0.00
2018-12-03T03:33:08.692Z,0.00
2018-12-03T03:34:08.718Z,0.00
2018-12-03T03:35:08.689Z,0.00
2018-12-03T03:36:08.688Z,0.00
2018-12-03T03:37:08.684Z,0.00
2018-12-03T03:38:08.686Z,0.00
2018-12-03T03:39:08.710Z,0.00
2018-12-03T03:40:08.675Z,0.00
2018-12-03T03:41:08.674Z,0.00
2018-12-03T03:42:08.671Z,0.00
2018-12-03T03:43:08.678Z,0.00
2018-12-03T03:44:08.699Z,0.00
2018-12-03T03:45:08.670Z,0.00
2018-12-03T03:46:08.663Z,0.00
2018-12-03T03:47:08.659Z,0.00
2018-12-03T03:48:08.688Z,0.00
2018-12-03T03:49:08.657Z,0.00
2018-12-03T03:50:08.660Z,0.00
2018-12-03T03:51:08.654Z,0.00
2018-12-03T03:52:08.654Z,0.00
2018-12-03T03:53:08.680Z,0.00
2018-12-03T03:54:08.651Z,0.00
2018-12-03T03:55:08.643Z,0.00
2018-12-03T03:56:08.641Z,0.00
2018-12-03T03:57:08.640Z,0.00
2018-12-03T03:58:08.664Z,0.00
2018-12-03T03:59:08.640Z,0.00
2018-12-03T04:00:08.634Z,0.00
2018-12-03T04:01:08.633Z,0.00
2018-12-03T04:02:08.624Z,0.00
2018-12-03T04:03:08.652Z,0.00
2018-12-03T04:04:08.624Z,0.00
2018-12-03T04:05:08.625Z,0.00
2018-12-03T04:06:08.621Z,0.00
2018-12-03T04:07:08.620Z,0.00
2018-12-03T04:08:08.651Z,0.00
2018-12-03T04:09:08.614Z,0.00
2018-12-03T04:10:08.613Z,0.00
2018-12-03T04:11:08.605Z,0.00
2018-12-03T04:12:08.620Z,0.00
2018-12-03T04:13:08.633Z,0.00
2018-12-03T04:14:08.605Z,0.00
2018-12-03T04:15:08.603Z,0.00
2018-12-03T04:16:08.601Z,0.00
2018-12-03T04:17:08.598Z,0.00
2018-12-03T04:18:08.621Z,0.00
2018-12-03T04:19:08.592Z,0.00
2018-12-03T04:20:08.593Z,0.00
2018-12-03T04:21:08.586Z,0.00
2018-12-03T04:22:08.586Z,0.00
2018-12-03T04:23:08.606Z,0.00
2018-12-03T04:24:08.587Z,0.00
2018-12-03T04:25:08.577Z,0.00
2018-12-03T04:26:08.574Z,0.00
2018-12-03T04:27:08.578Z,0.00
2018-12-03T04:28:08.597Z,0.00
2018-12-03T04:29:08.567Z,0.00
2018-12-03T04:30:08.566Z,0.00
2018-12-03T04:31:08.562Z,0.00
2018-12-03T04:32:08.565Z,0.00
2018-12-03T04:33:08.592Z,0.00
2018-12-03T04:34:08.550Z,0.00
2018-12-03T04:35:08.554Z,0.00
2018-12-03T04:36:08.551Z,0.00
2018-12-03T04:37:08.547Z,0.00
2018-12-03T04:38:08.576Z,0.00
2018-12-03T04:39:08.542Z,0.00
2018-12-03T04:40:08.543Z,0.00
2018-12-03T04:41:08.539Z,0.00
2018-12-03T04:42:08.539Z,0.00
2018-12-03T04:43:08.566Z,0.00
2018-12-03T04:44:08.532Z,0.00
2018-12-03T04:45:08.531Z,0.00
2018-12-03T04:46:08.528Z,0.00
2018-12-03T04:47:08.524Z,0.00
2018-12-03T04:48:08.546Z,0.00
2018-12-03T04:49:08.521Z,0.00
2018-12-03T04:50:08.515Z,0.00
2018-12-03T04:51:08.515Z,0.00
2018-12-03T04:52:08.513Z,0.00
2018-12-03T04:53:08.568Z,0.00
2018-12-03T04:54:08.509Z,0.00
2018-12-03T04:55:08.503Z,0.00
2018-12-03T04:56:08.502Z,0.00
2018-12-03T04:57:08.502Z,0.00
2018-12-03T04:58:08.533Z,0.00
2018-12-03T04:59:08.509Z,0.00
2018-12-03T05:00:08.489Z,0.00
2018-12-03T05:01:08.490Z,0.00
2018-12-03T05:02:08.487Z,0.00
2018-12-03T05:03:08.513Z,0.00
2018-12-03T05:04:08.484Z,0.00
2018-12-03T05:05:08.477Z,0.00
2018-12-03T05:06:08.479Z,0.00
2018-12-03T05:07:08.478Z,0.00
2018-12-03T05:08:08.499Z,0.00
2018-12-03T05:09:08.472Z,0.00
2018-12-03T05:10:08.471Z,0.00
2018-12-03T05:11:08.466Z,0.00
2018-12-03T05:12:08.460Z,0.00
2018-12-03T05:13:08.485Z,0.00
2018-12-03T05:14:08.467Z,0.00
2018-12-03T05:15:08.473Z,0.00
2018-12-03T05:16:08.450Z,0.00
2018-12-03T05:17:08.452Z,0.00
2018-12-03T05:18:08.471Z,0.00
2018-12-03T05:19:08.449Z,0.00
2018-12-03T05:20:08.445Z,0.00
2018-12-03T05:21:08.439Z,0.00
2018-12-03T05:22:08.438Z,0.00
2018-12-03T05:23:08.459Z,0.00
2018-12-03T05:24:08.432Z,0.00
2018-12-03T05:25:08.434Z,0.00
2018-12-03T05:26:08.428Z,0.00
2018-12-03T05:27:08.430Z,0.00
2018-12-03T05:28:08.452Z,0.00
2018-12-03T05:29:08.417Z,0.00
2018-12-03T05:30:08.412Z,0.00
2018-12-03T05:31:08.410Z,0.00
2018-12-03T05:32:08.409Z,0.00
2018-12-03T05:33:08.432Z,0.00
2018-12-03T05:34:08.406Z,0.00
2018-12-03T05:35:08.402Z,0.00
2018-12-03T05:36:08.401Z,0.00
2018-12-03T05:37:08.396Z,0.00
2018-12-03T05:38:08.424Z,0.00
2018-12-03T05:39:08.394Z,0.00
2018-12-03T05:40:08.394Z,0.00
2018-12-03T05:41:08.390Z,0.00
2018-12-03T05:42:08.383Z,0.00
2018-12-03T05:43:08.407Z,0.00
2018-12-03T05:44:08.377Z,0.00
2018-12-03T05:45:08.376Z,0.00
2018-12-03T05:46:08.374Z,0.00
2018-12-03T05:47:08.529Z,0.00
2018-12-03T05:48:08.395Z,0.00
2018-12-03T05:49:08.364Z,0.00
2018-12-03T05:50:08.362Z,0.00
2018-12-03T05:51:08.361Z,0.00
2018-12-03T05:52:08.357Z,0.00
2018-12-03T05:53:08.383Z,0.00
2018-12-03T05:54:08.356Z,0.00
2018-12-03T05:55:08.355Z,0.00
2018-12-03T05:56:08.351Z,0.00
2018-12-03T05:57:08.344Z,0.00
2018-12-03T05:58:08.383Z,0.00
2018-12-03T05:59:08.341Z,0.00
2018-12-03T06:00:08.360Z,0.00
2018-12-03T06:01:08.339Z,0.00
2018-12-03T06:02:08.335Z,0.00
2018-12-03T06:03:08.366Z,0.00
2018-12-03T06:04:08.333Z,0.00
2018-12-03T06:05:08.372Z,0.00
2018-12-03T06:06:08.326Z,0.00
2018-12-03T06:07:08.314Z,0.00
2018-12-03T06:08:08.347Z,0.00
2018-12-03T06:09:08.331Z,0.00
2018-12-03T06:10:08.312Z,0.00
2018-12-03T06:11:08.315Z,0.00
2018-12-03T06:12:08.317Z,0.00
2018-12-03T06:13:08.335Z,0.00
2018-12-03T06:14:08.307Z,0.00
2018-12-03T06:15:08.310Z,0.00
2018-12-03T06:16:08.308Z,0.00
2018-12-03T06:17:08.299Z,0.00
2018-12-03T06:18:08.323Z,0.00
2018-12-03T06:19:08.293Z,4.00
2018-12-03T06:20:08.288Z,4.00
2018-12-03T06:21:08.289Z,0.00
2018-12-03T06:22:08.287Z,4.00
2018-12-03T06:23:08.320Z,4.00
2018-12-03T06:24:08.283Z,4.00
2018-12-03T06:25:08.280Z,8.00
2018-12-03T06:26:08.279Z,8.00
2018-12-03T06:27:08.304Z,8.00
2018-12-03T06:28:08.292Z,12.00
2018-12-03T06:29:08.271Z,12.00
2018-12-03T06:30:08.284Z,16.00
2018-12-03T06:31:08.266Z,20.00
2018-12-03T06:32:08.260Z,20.00
2018-12-03T06:33:08.289Z,28.00
2018-12-03T06:34:08.257Z,32.00
2018-12-03T06:35:08.256Z,36.00
2018-12-03T06:36:08.265Z,40.00
2018-12-03T06:37:08.252Z,48.00
2018-12-03T06:38:08.286Z,56.00
2018-12-03T06:39:08.252Z,60.00
2018-12-03T06:40:08.244Z,72.00
2018-12-03T06:41:08.241Z,76.00
2018-12-03T06:42:08.265Z,84.00
2018-12-03T06:43:08.265Z,96.00
2018-12-03T06:44:08.236Z,104.00
2018-12-03T06:45:08.233Z,116.00
2018-12-03T06:46:08.228Z,128.00
2018-12-03T06:47:08.228Z,140.00
2018-12-03T06:48:08.252Z,160.00
2018-12-03T06:49:08.231Z,180.00
2018-12-03T06:50:08.213Z,200.00
2018-12-03T06:51:08.217Z,224.00
2018-12-03T06:52:08.217Z,244.00
2018-12-03T06:53:08.251Z,260.00
2018-12-03T06:54:08.208Z,276.00
2018-12-03T06:55:08.209Z,292.00
2018-12-03T06:56:08.207Z,300.00
2018-12-03T06:57:08.205Z,308.00
2018-12-03T06:58:08.229Z,316.00
2018-12-03T06:59:08.201Z,320.00
2018-12-03T07:00:08.197Z,328.00
2018-12-03T07:01:08.198Z,344.00
2018-12-03T07:02:08.813Z,368.00
2018-12-03T07:03:08.297Z,408.00
2018-12-03T07:04:08.185Z,444.00
2018-12-03T07:05:08.187Z,472.00
2018-12-03T07:06:08.181Z,488.00
2018-12-03T07:07:08.180Z,504.00
2018-12-03T07:08:08.207Z,524.00
2018-12-03T07:09:08.176Z,560.00
2018-12-03T07:10:08.170Z,584.00
2018-12-03T07:11:08.170Z,580.00
2018-12-03T07:12:08.174Z,580.00
2018-12-03T07:13:08.198Z,576.00
2018-12-03T07:14:08.170Z,548.00
2018-12-03T07:15:08.162Z,484.00
2018-12-03T07:16:08.167Z,412.00
2018-12-03T07:17:08.158Z,384.00
2018-12-03T07:18:08.186Z,344.00
2018-12-03T07:19:08.154Z,284.00
2018-12-03T07:20:08.157Z,268.00
2018-12-03T07:21:08.150Z,312.00
2018-12-03T07:22:08.145Z,324.00
2018-12-03T07:23:08.178Z,280.00
2018-12-03T07:24:08.138Z,244.00
2018-12-03T07:25:08.140Z,212.00
2018-12-03T07:26:08.140Z,288.00
2018-12-03T07:27:08.146Z,340.00
2018-12-03T07:28:09.065Z,340.00
2018-12-03T07:29:08.133Z,332.00
2018-12-03T07:30:08.131Z,296.00
2018-12-03T07:31:11.179Z,256.00
2018-12-03T07:32:08.145Z,240.00
2018-12-03T07:33:08.151Z,244.00
2018-12-03T07:34:08.122Z,260.00
2018-12-03T07:35:09.823Z,292.00
2018-12-03T07:36:08.134Z,332.00
2018-12-03T07:37:08.114Z,372.00
2018-12-03T07:38:08.137Z,400.00
2018-12-03T07:39:08.111Z,468.00
2018-12-03T07:40:08.113Z,568.00
2018-12-03T07:41:08.107Z,636.00
2018-12-03T07:42:08.100Z,664.00
2018-12-03T07:43:08.127Z,688.00
2018-12-03T07:44:08.099Z,716.00
2018-12-03T07:45:08.091Z,740.00
2018-12-03T07:46:08.101Z,756.00
2018-12-03T07:47:08.091Z,756.00
2018-12-03T07:48:08.115Z,744.00
2018-12-03T07:49:08.090Z,728.00
2018-12-03T07:50:08.094Z,724.00
2018-12-03T07:51:08.083Z,768.00
2018-12-03T07:52:08.080Z,844.00
2018-12-03T07:53:08.108Z,900.00
2018-12-03T07:54:08.074Z,960.00
2018-12-03T07:55:08.085Z,1064.00
2018-12-03T07:56:08.074Z,1232.00
2018-12-03T07:57:08.070Z,1380.00
2018-12-03T07:58:08.095Z,1440.00
2018-12-03T07:59:08.062Z,1448.00
2018-12-03T08:00:08.061Z,1540.00
2018-12-03T08:01:08.060Z,1784.00
2018-12-03T08:02:08.055Z,2120.00
2018-12-03T08:03:08.080Z,2496.00
2018-12-03T08:04:08.052Z,2828.00
2018-12-03T08:05:08.053Z,3076.00
2018-12-03T08:06:08.048Z,3312.00
2018-12-03T08:07:08.044Z,3544.00
2018-12-03T08:08:08.072Z,3772.00
2018-12-03T08:09:08.044Z,4024.00
2018-12-03T08:10:08.044Z,4280.00
2018-12-03T08:11:08.041Z,4496.00
2018-12-03T08:12:08.035Z,4648.00
2018-12-03T08:13:08.065Z,4712.00
2018-12-03T08:14:08.028Z,4728.00
2018-12-03T08:15:08.029Z,4704.00
2018-12-03T08:16:08.025Z,4632.00
2018-12-03T08:17:08.032Z,4488.00
2018-12-03T08:18:08.049Z,4348.00
2018-12-03T08:19:08.025Z,4264.00
2018-12-03T08:20:08.016Z,4260.00
2018-12-03T08:21:08.019Z,4296.00
2018-12-03T08:22:08.013Z,4484.00
2018-12-03T08:23:08.040Z,4792.00
2018-12-03T08:24:08.008Z,5192.00
2018-12-03T08:25:08.014Z,5680.00
2018-12-03T08:26:08.002Z,6212.00
2018-12-03T08:27:08.004Z,6748.00
2018-12-03T08:28:08.029Z,7236.00
2018-12-03T08:29:08.001Z,7696.00
2018-12-03T08:30:07.997Z,8076.00
2018-12-03T08:31:08.001Z,8368.00
2018-12-03T08:32:07.992Z,8432.00
2018-12-03T08:33:08.018Z,8404.00
2018-12-03T08:34:08.019Z,8224.00
2018-12-03T08:35:07.985Z,7940.00
2018-12-03T08:36:07.987Z,7620.00
2018-12-03T08:37:08.000Z,7340.00
2018-12-03T08:38:07.990Z,7000.00
2018-12-03T08:39:08.010Z,6700.00
2018-12-03T08:40:07.980Z,6424.00
2018-12-03T08:41:07.982Z,6152.00
2018-12-03T08:42:07.973Z,5860.00
2018-12-03T08:43:07.974Z,5660.00
2018-12-03T08:44:08.001Z,5620.00
2018-12-03T08:45:07.966Z,5692.00
2018-12-03T08:46:07.971Z,5880.00
2018-12-03T08:47:07.979Z,6188.00
2018-12-03T08:48:07.971Z,6496.00
2018-12-03T08:49:07.998Z,6916.00
2018-12-03T08:50:07.962Z,7236.00
2018-12-03T08:51:07.961Z,7172.00
2018-12-03T08:52:07.959Z,7056.00
2018-12-03T08:53:07.961Z,7096.00
2018-12-03T08:54:07.986Z,6924.00
2018-12-03T08:55:07.954Z,6728.00
2018-12-03T08:56:07.956Z,6772.00
2018-12-03T08:57:07.954Z,6800.00
2018-12-03T08:58:07.954Z,7308.00
2018-12-03T08:59:07.975Z,6860.00
2018-12-03T09:00:07.950Z,6632.00
2018-12-03T09:01:07.950Z,7028.00
2018-12-03T09:02:07.947Z,7744.00
2018-12-03T09:03:07.950Z,7756.00
2018-12-03T09:04:07.975Z,7720.00
2018-12-03T09:05:07.950Z,8064.00
2018-12-03T09:06:07.949Z,8364.00
2018-12-03T09:07:07.948Z,8460.00
2018-12-03T09:08:07.956Z,8200.00
2018-12-03T09:09:07.986Z,8484.00
2018-12-03T09:10:07.958Z,9084.00
2018-12-03T09:11:07.966Z,9324.00
2018-12-03T09:12:07.960Z,9572.00
2018-12-03T09:13:07.963Z,9652.00
2018-12-03T09:14:08.071Z,10036.00
2018-12-03T09:15:07.975Z,10172.00
2018-12-03T09:16:08.090Z,9852.00
2018-12-03T09:17:07.980Z,8696.00
2018-12-03T09:18:07.984Z,7200.00
2018-12-03T09:19:08.011Z,7284.00
2018-12-03T09:20:08.853Z,8680.00
2018-12-03T09:21:07.999Z,8436.00
2018-12-03T09:22:08.048Z,7928.00
2018-12-03T09:23:08.003Z,7848.00
2018-12-03T09:24:08.101Z,7884.00
2018-12-03T09:25:08.139Z,7300.00
2018-12-03T09:26:09.102Z,7032.00
2018-12-03T09:27:08.345Z,7816.00
2018-12-03T09:28:08.035Z,8184.00
2018-12-03T09:29:08.067Z,7892.00
2018-12-03T09:30:12.407Z,7976.00
2018-12-03T09:31:08.056Z,8108.00
2018-12-03T09:32:08.112Z,8044.00
2018-12-03T09:33:08.092Z,8632.00
2018-12-03T09:34:08.102Z,9180.00
2018-12-03T09:35:08.072Z,9892.00
2018-12-03T09:36:08.080Z,10020.00
2018-12-03T09:37:08.084Z,10272.00
2018-12-03T09:38:08.092Z,9572.00
2018-12-03T09:39:08.130Z,9388.00
2018-12-03T09:40:08.137Z,9272.00
2018-12-03T09:41:08.121Z,9096.00
2018-12-03T09:42:08.120Z,9096.00
2018-12-03T09:43:08.131Z,9156.00
2018-12-03T09:44:08.137Z,9304.00
2018-12-03T09:45:08.172Z,9272.00
2018-12-03T09:46:08.152Z,9372.00
2018-12-03T09:47:08.160Z,10012.00
2018-12-03T09:48:08.173Z,10372.00
2018-12-03T09:49:08.173Z,10852.00
2018-12-03T09:50:08.212Z,10936.00
2018-12-03T09:51:08.194Z,10816.00
2018-12-03T09:52:08.206Z,10512.00
2018-12-03T09:53:08.213Z,10828.00
2018-12-03T09:54:08.252Z,10484.00
2018-12-03T09:55:08.228Z,10748.00
2018-12-03T09:56:08.239Z,10908.00
2018-12-03T09:57:08.248Z,10820.00
2018-12-03T09:58:08.254Z,11904.00
2018-12-03T09:59:08.297Z,12912.00
2018-12-03T10:00:08.277Z,13928.00
2018-12-03T10:01:08.279Z,13596.00
2018-12-03T10:02:08.289Z,9940.00
2018-12-03T10:03:08.301Z,12788.00
2018-12-03T10:04:08.339Z,13152.00
2018-12-03T10:05:08.317Z,13848.00
2018-12-03T10:06:08.325Z,14056.00
2018-12-03T10:07:08.341Z,15536.00
2018-12-03T10:08:08.345Z,17568.00
2018-12-03T10:09:08.386Z,11364.00
2018-12-03T10:10:08.398Z,14304.00
2018-12-03T10:11:08.375Z,16136.00
2018-12-03T10:12:08.406Z,25216.00
2018-12-03T10:13:08.393Z,26816.00
2018-12-03T10:14:08.435Z,27168.00
2018-12-03T10:15:08.439Z,23776.00
2018-12-03T10:16:08.422Z,25824.00
2018-12-03T10:17:08.432Z,26880.00
2018-12-03T10:18:08.439Z,21952.00
2018-12-03T10:19:08.471Z,13432.00
2018-12-03T10:20:08.450Z,19712.00
2018-12-03T10:21:08.466Z,52352.00
2018-12-03T10:22:08.473Z,52192.00
2018-12-03T10:23:08.483Z,14828.00
2018-12-03T10:24:08.518Z,13348.00
2018-12-03T10:25:08.531Z,11300.00
2018-12-03T10:26:08.505Z,9812.00
2018-12-03T10:27:08.517Z,8844.00
2018-12-03T10:28:08.524Z,7028.00
2018-12-03T10:29:08.561Z,6352.00
2018-12-03T10:30:08.563Z,6744.00
2018-12-03T10:31:08.538Z,8036.00
2018-12-03T10:32:08.542Z,9228.00
2018-12-03T10:33:08.546Z,9000.00
2018-12-03T10:34:08.551Z,8292.00
2018-12-03T10:35:08.583Z,9004.00
2018-12-03T10:36:08.563Z,11644.00
2018-12-03T10:37:08.560Z,31520.00
2018-12-03T10:38:08.562Z,42880.00
2018-12-03T10:39:08.571Z,43648.00
2018-12-03T10:40:08.601Z,46208.00
2018-12-03T10:41:08.575Z,48000.00
2018-12-03T10:42:08.577Z,16816.00
2018-12-03T10:43:08.579Z,11548.00
2018-12-03T10:44:08.587Z,12064.00
2018-12-03T10:45:08.619Z,24864.00
2018-12-03T10:46:08.599Z,12820.00
2018-12-03T10:47:08.599Z,13532.00
2018-12-03T10:48:08.603Z,30464.00
2018-12-03T10:49:08.608Z,36992.00
2018-12-03T10:50:08.615Z,28576.00
2018-12-03T10:51:08.640Z,14316.00
2018-12-03T10:52:08.619Z,12500.00
2018-12-03T10:53:08.623Z,10848.00
2018-12-03T10:54:08.627Z,8504.00
2018-12-03T10:55:08.655Z,9340.00
2018-12-03T10:56:08.632Z,50112.00
2018-12-03T10:57:08.638Z,49792.00
2018-12-03T10:58:08.641Z,50432.00
2018-12-03T10:59:08.647Z,48032.00
2018-12-03T11:00:08.680Z,46432.00
2018-12-03T11:01:08.661Z,42464.00
2018-12-03T11:02:08.655Z,47552.00
2018-12-03T11:03:08.664Z,29344.00
2018-12-03T11:04:08.672Z,18720.00
2018-12-03T11:05:08.712Z,19936.00
2018-12-03T11:06:08.684Z,14036.00
2018-12-03T11:07:08.688Z,10044.00
2018-12-03T11:08:08.694Z,9368.00
2018-12-03T11:09:08.701Z,9224.00
2018-12-03T11:10:08.745Z,8664.00
2018-12-03T11:11:08.714Z,8592.00
2018-12-03T11:12:08.752Z,8864.00
2018-12-03T11:13:08.747Z,8064.00
2018-12-03T11:14:08.750Z,7532.00
2018-12-03T11:15:08.778Z,7552.00
2018-12-03T11:16:08.752Z,7036.00
2018-12-03T11:17:08.733Z,6316.00
2018-12-03T11:18:08.737Z,6244.00
2018-12-03T11:19:08.739Z,5920.00
2018-12-03T11:20:08.770Z,5804.00
2018-12-03T11:21:08.745Z,5628.00
2018-12-03T11:22:08.745Z,5604.00
2018-12-03T11:23:08.745Z,5760.00
2018-12-03T11:24:08.750Z,5916.00
2018-12-03T11:25:08.785Z,5716.00
2018-12-03T11:26:08.775Z,5288.00
2018-12-03T11:27:08.752Z,4708.00
2018-12-03T11:28:08.759Z,4360.00
2018-12-03T11:29:08.755Z,4276.00
2018-12-03T11:30:08.753Z,4368.00
2018-12-03T11:31:08.785Z,4372.00
2018-12-03T11:32:08.757Z,4116.00
2018-12-03T11:33:08.758Z,4212.00
2018-12-03T11:34:08.758Z,5124.00
2018-12-03T11:35:08.785Z,4752.00
2018-12-03T11:36:08.785Z,4612.00
2018-12-03T11:37:08.757Z,5132.00
2018-12-03T11:38:08.787Z,5264.00
2018-12-03T11:39:08.753Z,4888.00
2018-12-03T11:40:08.764Z,4336.00
2018-12-03T11:41:08.781Z,3620.00
2018-12-03T11:42:08.755Z,3216.00
2018-12-03T11:43:08.753Z,3044.00
2018-12-03T11:44:08.755Z,3480.00
2018-12-03T11:45:08.754Z,3408.00
2018-12-03T11:46:08.778Z,3332.00
2018-12-03T11:47:08.751Z,3344.00
2018-12-03T11:48:08.747Z,3232.00
2018-12-03T11:49:08.750Z,3400.00
2018-12-03T11:50:08.751Z,3952.00
2018-12-03T11:51:08.779Z,4324.00
2018-12-03T11:52:08.746Z,5344.00
2018-12-03T11:53:08.747Z,7600.00
2018-12-03T11:54:08.747Z,7824.00
2018-12-03T11:55:08.747Z,5196.00
2018-12-03T11:56:08.771Z,3140.00
2018-12-03T11:57:08.742Z,2724.00
2018-12-03T11:58:08.754Z,2884.00
2018-12-03T11:59:08.739Z,2968.00
2018-12-03T12:00:08.742Z,4420.00
2018-12-03T12:01:08.767Z,4808.00
2018-12-03T12:02:08.774Z,4384.00
2018-12-03T12:03:08.734Z,5112.00
2018-12-03T12:04:08.738Z,5484.00
2018-12-03T12:05:08.730Z,5952.00
2018-12-03T12:06:08.727Z,6796.00
2018-12-03T12:07:08.755Z,7724.00
2018-12-03T12:08:08.727Z,7920.00
2018-12-03T12:09:08.726Z,7956.00
2018-12-03T12:10:08.731Z,8264.00
2018-12-03T12:11:08.754Z,8440.00
2018-12-03T12:12:08.729Z,8216.00
2018-12-03T12:13:08.723Z,7352.00
2018-12-03T12:14:08.724Z,6540.00
2018-12-03T12:15:08.720Z,5532.00
2018-12-03T12:16:08.743Z,4756.00
2018-12-03T12:17:08.717Z,5328.00
2018-12-03T12:18:08.717Z,5776.00
2018-12-03T12:19:08.711Z,6424.00
2018-12-03T12:20:08.712Z,7660.00
2018-12-03T12:21:08.740Z,8728.00
2018-12-03T12:22:08.736Z,8268.00
2018-12-03T12:23:08.712Z,6548.00
2018-12-03T12:24:08.708Z,5512.00
2018-12-03T12:25:08.708Z,6156.00
2018-12-03T12:26:08.699Z,7488.00
2018-12-03T12:27:08.732Z,7932.00
2018-12-03T12:28:08.704Z,7524.00
2018-12-03T12:29:08.700Z,7288.00
2018-12-03T12:30:08.704Z,7232.00
2018-12-03T12:31:08.703Z,7028.00
2018-12-03T12:32:08.724Z,6652.00
2018-12-03T12:33:08.692Z,5972.00
2018-12-03T12:34:08.696Z,5240.00
2018-12-03T12:35:08.692Z,5380.00
2018-12-03T12:36:08.696Z,6000.00
2018-12-03T12:37:08.717Z,7072.00
2018-12-03T12:38:08.695Z,7700.00
2018-12-03T12:39:08.750Z,7896.00
2018-12-03T12:40:08.688Z,9084.00
2018-12-03T12:41:08.717Z,9552.00
2018-12-03T12:42:08.685Z,9084.00